createdAt,value
2024-04-13T00:01:55.264Z,1.77
2024-04-13T00:04:25.323Z,1.80
2024-04-13T00:06:52.267Z,1.20
2024-04-13T00:09:19.601Z,1.40
2024-04-13T00:11:46.294Z,1.77
2024-04-13T00:14:12.956Z,1.50
2024-04-13T00:16:39.994Z,2.08
2024-04-13T00:19:06.668Z,1.80
2024-04-13T00:21:33.390Z,1.30
2024-04-13T00:24:00.182Z,1.50
2024-04-13T00:26:28.679Z,1.60
2024-04-13T00:28:55.574Z,1.13
2024-04-13T00:31:22.382Z,1.20
2024-04-13T00:33:49.284Z,1.48
2024-04-13T00:36:15.980Z,1.60
2024-04-13T00:38:42.772Z,1.50
2024-04-13T00:41:09.539Z,1.30
2024-04-13T00:43:36.637Z,1.35
2024-04-13T00:46:09.398Z,1.63
2024-04-13T00:48:38.307Z,1.65
2024-04-13T00:51:06.442Z,1.58
2024-04-13T00:53:35.203Z,1.40
2024-04-13T00:56:02.912Z,1.63
2024-04-13T00:58:30.690Z,1.80
2024-04-13T01:00:58.297Z,1.65
2024-04-13T01:03:29.387Z,1.65
2024-04-13T01:05:59.677Z,1.80
2024-04-13T01:08:29.305Z,1.20
2024-04-13T01:10:59.160Z,1.27
2024-04-13T01:13:27.561Z,1.48
2024-04-13T01:18:21.220Z,1.40
2024-04-13T01:20:48.352Z,1.75
2024-04-13T01:23:16.254Z,1.80
2024-04-13T01:25:43.488Z,1.55
2024-04-13T01:28:11.258Z,2.00
2024-04-13T01:30:38.253Z,1.60
2024-04-13T01:33:05.353Z,1.80
2024-04-13T01:35:32.367Z,1.60
2024-04-13T01:37:59.070Z,1.88
2024-04-13T01:40:25.718Z,1.80
2024-04-13T01:42:52.675Z,1.80
2024-04-13T01:45:19.620Z,1.60
2024-04-13T01:47:46.531Z,2.08
2024-04-13T01:50:14.129Z,2.20
2024-04-13T01:52:41.244Z,1.67
2024-04-13T01:55:08.161Z,1.95
2024-04-13T01:57:35.208Z,2.33
2024-04-13T02:00:02.294Z,2.33
2024-04-13T02:02:29.191Z,2.25
2024-04-13T02:04:55.883Z,2.35
2024-04-13T02:07:23.583Z,1.98
2024-04-13T02:09:50.268Z,2.00
2024-04-13T02:12:16.933Z,1.95
2024-04-13T02:14:43.976Z,1.85
2024-04-13T02:17:11.092Z,2.47
2024-04-13T02:19:37.755Z,2.40
2024-04-13T02:22:04.673Z,2.45
2024-04-13T02:24:31.375Z,2.53
2024-04-13T02:26:58.617Z,2.65
2024-04-13T02:29:26.855Z,2.63
2024-04-13T02:31:53.839Z,2.58
2024-04-13T02:34:21.036Z,2.28
2024-04-13T02:36:48.427Z,2.58
2024-04-13T02:39:16.941Z,2.90
2024-04-13T02:41:43.697Z,2.83
2024-04-13T02:44:10.330Z,2.53
2024-04-13T02:46:37.051Z,2.83
2024-04-13T02:49:04.114Z,2.72
2024-04-13T02:51:31.586Z,2.50
2024-04-13T02:53:58.586Z,2.53
2024-04-13T02:56:25.553Z,2.05
2024-04-13T02:58:52.406Z,2.40
2024-04-13T03:01:20.242Z,2.38
2024-04-13T03:03:47.790Z,2.67
2024-04-13T03:06:15.365Z,2.78
2024-04-13T03:08:43.145Z,2.50
2024-04-13T03:11:10.521Z,2.38
2024-04-13T03:13:38.706Z,2.85
2024-04-13T03:16:08.003Z,2.60
2024-04-13T03:18:35.293Z,2.65
2024-04-13T03:21:02.224Z,2.72
2024-04-13T03:23:30.196Z,2.97
2024-04-13T03:25:56.844Z,2.78
2024-04-13T03:28:27.202Z,2.60
2024-04-13T03:30:54.012Z,2.63
2024-04-13T03:33:20.708Z,2.35
2024-04-13T03:35:47.379Z,2.30
2024-04-13T03:38:14.586Z,2.17
2024-04-13T03:40:41.358Z,2.25
2024-04-13T03:43:08.352Z,2.50
2024-04-13T03:45:35.354Z,2.40
2024-04-13T03:48:02.097Z,2.22
2024-04-13T03:50:28.786Z,2.17
2024-04-13T03:52:55.430Z,2.50
2024-04-13T03:55:22.070Z,2.83
2024-04-13T03:57:48.956Z,2.42
2024-04-13T04:00:16.116Z,2.30
2024-04-13T04:02:42.775Z,2.28
2024-04-13T04:05:09.461Z,3.08
2024-04-13T04:07:36.186Z,2.58
2024-04-13T04:10:02.828Z,3.10
2024-04-13T04:12:29.517Z,3.30
2024-04-13T04:14:56.213Z,2.70
2024-04-13T04:17:22.957Z,3.50
2024-04-13T04:19:49.608Z,2.75
2024-04-13T04:22:16.305Z,3.15
2024-04-13T04:24:43.045Z,2.90
2024-04-13T04:27:10.535Z,2.83
2024-04-13T04:29:37.779Z,2.45
2024-04-13T04:32:04.698Z,2.95
2024-04-13T04:34:31.460Z,2.88
2024-04-13T04:36:58.134Z,2.88
2024-04-13T04:39:24.863Z,2.70
2024-04-13T04:41:52.465Z,2.53
2024-04-13T04:44:19.308Z,2.45
2024-04-13T04:46:46.964Z,2.53
2024-04-13T04:49:13.999Z,2.53
2024-04-13T04:51:42.149Z,2.80
2024-04-13T04:54:11.756Z,2.60
2024-04-13T04:56:38.523Z,2.58
2024-04-13T04:59:05.699Z,2.85
2024-04-13T05:01:32.449Z,3.40
2024-04-13T05:03:59.302Z,3.25
2024-04-13T05:06:26.061Z,3.40
2024-04-13T05:08:52.825Z,3.17
2024-04-13T05:11:19.540Z,3.13
2024-04-13T05:13:46.252Z,3.50
2024-04-13T05:16:12.907Z,3.13
2024-04-13T05:18:39.745Z,4.20
2024-04-13T05:21:06.713Z,4.15
2024-04-13T05:23:33.929Z,2.83
2024-04-13T05:26:00.844Z,3.35
2024-04-13T05:28:28.063Z,3.50
2024-04-13T05:30:58.246Z,3.28
2024-04-13T05:33:25.870Z,3.15
2024-04-13T05:35:52.852Z,3.33
2024-04-13T05:38:19.633Z,2.80
2024-04-13T05:40:46.745Z,3.35
2024-04-13T05:43:13.735Z,3.58
2024-04-13T05:45:40.698Z,3.53
2024-04-13T05:48:08.092Z,3.10
2024-04-13T05:50:35.149Z,3.08
2024-04-13T05:53:01.866Z,3.10
2024-04-13T05:55:28.602Z,2.80
2024-04-13T05:57:55.274Z,3.55
2024-04-13T06:00:23.199Z,3.47
2024-04-13T06:02:53.253Z,3.90
2024-04-13T06:05:20.042Z,3.47
2024-04-13T06:07:46.787Z,4.05
2024-04-13T06:10:13.551Z,4.03
2024-04-13T06:12:40.392Z,3.22
2024-04-13T06:15:07.516Z,3.30
2024-04-13T06:17:34.256Z,3.60
2024-04-13T06:20:00.972Z,3.22
2024-04-13T06:22:27.692Z,3.70
2024-04-13T06:24:54.387Z,3.15
2024-04-13T06:27:21.077Z,3.58
2024-04-13T06:29:49.793Z,3.70
2024-04-13T06:32:17.037Z,3.13
2024-04-13T06:34:43.865Z,3.55
2024-04-13T06:37:12.796Z,3.22
2024-04-13T06:39:39.529Z,3.40
2024-04-13T06:42:06.617Z,3.30
2024-04-13T06:44:33.807Z,3.13
2024-04-13T06:47:00.499Z,3.70
2024-04-13T06:49:27.260Z,3.67
2024-04-13T06:51:54.151Z,3.92
2024-04-13T06:54:20.927Z,3.20
2024-04-13T06:56:47.620Z,3.65
2024-04-13T06:59:14.287Z,3.88
2024-04-13T07:01:41.013Z,3.50
2024-04-13T07:04:07.824Z,4.47
2024-04-13T07:06:41.074Z,4.18
2024-04-13T07:09:07.785Z,4.05
2024-04-13T07:11:34.442Z,3.70
2024-04-13T07:14:01.091Z,3.83
2024-04-13T07:16:27.757Z,3.80
2024-04-13T07:18:54.524Z,3.70
2024-04-13T07:21:21.295Z,4.03
2024-04-13T07:23:49.355Z,4.00
2024-04-13T07:26:16.071Z,4.55
2024-04-13T07:28:42.787Z,3.72
2024-04-13T07:31:09.436Z,3.85
2024-04-13T07:33:36.208Z,4.22
2024-04-13T07:36:03.096Z,4.07
2024-04-13T07:38:29.895Z,4.22
2024-04-13T07:40:56.516Z,3.92
2024-04-13T07:43:24.039Z,4.22
2024-04-13T07:45:53.322Z,4.60
2024-04-13T07:48:20.236Z,3.97
2024-04-13T07:50:47.115Z,3.92
2024-04-13T07:53:13.741Z,4.80
2024-04-13T07:55:40.365Z,3.70
2024-04-13T07:58:07.066Z,4.00
2024-04-13T08:00:33.935Z,3.83
2024-04-13T08:03:00.707Z,3.70
2024-04-13T08:05:27.375Z,4.28
2024-04-13T08:07:54.095Z,3.85
2024-04-13T08:10:21.042Z,3.88
2024-04-13T08:12:47.881Z,4.22
2024-04-13T08:15:14.609Z,3.60
2024-04-13T08:17:41.501Z,3.72
2024-04-13T08:20:13.613Z,4.13
2024-04-13T08:22:41.370Z,3.92
2024-04-13T08:25:07.972Z,4.55
2024-04-13T08:27:36.374Z,3.80
2024-04-13T08:30:03.980Z,4.10
2024-04-13T08:32:30.656Z,3.40
2024-04-13T08:34:57.416Z,4.03
2024-04-13T08:37:24.167Z,3.50
2024-04-13T08:39:50.956Z,4.70
2024-04-13T08:42:23.341Z,3.80
2024-04-13T08:44:53.421Z,3.40
2024-04-13T08:47:20.360Z,3.33
2024-04-13T08:49:48.797Z,3.60
2024-04-13T08:52:16.912Z,4.20
2024-04-13T08:57:11.543Z,3.70
2024-04-13T08:59:40.091Z,3.00
2024-04-13T09:02:10.975Z,4.47
2024-04-13T09:04:38.896Z,3.50
2024-04-13T09:07:05.636Z,4.20
2024-04-13T09:09:35.749Z,4.38
2024-04-13T09:12:02.523Z,4.45
2024-04-13T09:14:29.379Z,4.95
2024-04-13T09:16:56.088Z,4.72
2024-04-13T09:19:22.944Z,4.28
2024-04-13T09:21:50.889Z,4.65
2024-04-13T09:24:17.597Z,4.03
2024-04-13T09:26:47.581Z,4.97
2024-04-13T09:29:25.020Z,4.45
2024-04-13T09:31:51.669Z,5.05
2024-04-13T09:34:18.946Z,4.80
2024-04-13T09:36:45.938Z,5.85
2024-04-13T09:39:23.010Z,6.03
2024-04-13T09:41:50.328Z,6.55
2024-04-13T09:44:27.133Z,6.32
2024-04-13T09:46:53.814Z,7.10
2024-04-13T09:49:20.565Z,6.80
2024-04-13T09:51:50.426Z,7.28
2024-04-13T09:54:17.477Z,7.07
2024-04-13T09:56:47.506Z,7.47
2024-04-13T09:59:14.844Z,8.32
2024-04-13T10:01:41.922Z,7.28
2024-04-13T10:04:08.996Z,7.75
2024-04-13T10:06:38.759Z,7.68
2024-04-13T10:09:06.921Z,8.27
2024-04-13T10:11:36.048Z,7.55
2024-04-13T10:14:02.808Z,8.55
2024-04-13T10:16:29.643Z,7.45
2024-04-13T10:18:56.519Z,8.13
2024-04-13T10:21:23.592Z,8.27
2024-04-13T10:23:50.215Z,7.93
2024-04-13T10:26:27.261Z,9.27
2024-04-13T10:29:01.032Z,7.97
2024-04-13T10:31:29.005Z,8.52
2024-04-13T10:36:31.138Z,8.30
2024-04-13T10:38:59.190Z,8.57
2024-04-13T10:44:03.494Z,7.45
2024-04-13T10:46:30.263Z,8.13
2024-04-13T10:48:57.284Z,7.53
2024-04-13T10:51:24.214Z,8.60
2024-04-13T10:53:51.377Z,7.45
2024-04-13T10:56:18.375Z,8.63
2024-04-13T10:58:45.140Z,7.90
2024-04-13T11:01:13.134Z,7.93
2024-04-13T11:03:40.973Z,7.90
2024-04-13T11:06:08.919Z,8.18
2024-04-13T11:08:35.970Z,7.30
2024-04-13T11:11:03.164Z,7.13
2024-04-13T11:13:31.789Z,7.32
2024-04-13T11:15:58.615Z,8.75
2024-04-13T11:18:25.528Z,7.57
2024-04-13T11:21:02.670Z,8.02
2024-04-13T11:23:29.471Z,6.90
2024-04-13T11:25:57.264Z,6.82
2024-04-13T11:28:23.994Z,6.95
2024-04-13T11:30:52.949Z,7.43
2024-04-13T11:33:21.232Z,7.75
2024-04-13T11:35:58.482Z,7.07
2024-04-13T11:38:25.448Z,6.07
2024-04-13T11:40:52.211Z,5.57
2024-04-13T11:43:18.960Z,6.88
2024-04-13T11:45:46.214Z,6.05
2024-04-13T11:48:13.529Z,5.90
2024-04-13T11:50:40.295Z,6.35
2024-04-13T11:53:07.289Z,6.13
2024-04-13T11:55:38.047Z,5.88
2024-04-13T11:58:06.008Z,6.43
2024-04-13T12:00:32.670Z,6.05
2024-04-13T12:02:59.783Z,5.45
2024-04-13T12:05:27.298Z,7.50
2024-04-13T12:07:54.023Z,5.70
2024-04-13T12:10:20.847Z,6.63
2024-04-13T12:12:47.721Z,6.50
2024-04-13T12:15:14.509Z,6.45
2024-04-13T12:17:41.253Z,5.38
2024-04-13T12:20:08.177Z,6.22
2024-04-13T12:22:34.869Z,5.90
2024-04-13T12:25:01.676Z,4.90
2024-04-13T12:27:28.781Z,4.40
2024-04-13T12:29:58.135Z,4.22
2024-04-13T12:32:27.128Z,4.47
2024-04-13T12:37:20.428Z,3.92
2024-04-13T12:39:47.146Z,3.15
2024-04-13T12:42:13.992Z,3.55
2024-04-13T12:44:40.883Z,3.08
2024-04-13T12:47:11.957Z,3.28
2024-04-13T12:49:39.253Z,3.30
2024-04-13T12:52:06.134Z,3.67
2024-04-13T12:54:32.850Z,2.50
2024-04-13T12:56:59.664Z,2.83
2024-04-13T12:59:26.291Z,3.45
2024-04-13T13:01:52.964Z,3.45
2024-04-13T13:04:19.604Z,2.75
2024-04-13T13:06:46.304Z,3.60
2024-04-13T13:09:12.954Z,3.10
2024-04-13T13:11:42.334Z,2.70
2024-04-13T13:14:10.529Z,3.65
2024-04-13T13:16:37.661Z,3.65
2024-04-13T13:19:04.488Z,3.67
2024-04-13T13:21:31.197Z,3.35
2024-04-13T13:23:57.846Z,3.03
2024-04-13T13:26:24.518Z,2.40
2024-04-13T13:28:53.155Z,2.88
2024-04-13T13:31:21.236Z,4.13
2024-04-13T13:33:47.892Z,3.55
2024-04-13T13:36:14.698Z,6.30
2024-04-13T13:38:41.908Z,4.32
2024-04-13T13:41:08.592Z,3.42
2024-04-13T13:43:35.320Z,2.72
2024-04-13T13:46:02.135Z,3.45
2024-04-13T13:48:28.989Z,2.97
2024-04-13T13:50:55.855Z,3.15
2024-04-13T13:53:22.721Z,3.00
2024-04-13T13:55:49.359Z,3.22
2024-04-13T13:58:15.985Z,3.95
2024-04-13T14:00:42.786Z,3.40
2024-04-13T14:03:10.017Z,3.58
2024-04-13T14:05:36.828Z,3.60
2024-04-13T14:08:03.616Z,3.55
2024-04-13T14:10:30.617Z,3.20
2024-04-13T14:12:57.371Z,3.85
2024-04-13T14:15:24.132Z,3.75
2024-04-13T14:17:51.003Z,3.63
2024-04-13T14:20:17.811Z,3.22
2024-04-13T14:22:44.433Z,3.85
2024-04-13T14:25:11.057Z,3.10
2024-04-13T14:27:37.824Z,3.95
2024-04-13T14:30:04.827Z,3.65
2024-04-13T14:32:31.561Z,3.72
2024-04-13T14:34:58.280Z,3.83
2024-04-13T14:37:24.985Z,3.53
2024-04-13T14:39:52.201Z,3.30
2024-04-13T14:42:20.012Z,2.92
2024-04-13T14:44:46.759Z,3.50
2024-04-13T14:47:14.111Z,3.63
2024-04-13T14:49:41.221Z,3.55
2024-04-13T14:52:07.903Z,3.53
2024-04-13T14:54:34.747Z,3.40
2024-04-13T14:57:01.575Z,4.05
2024-04-13T14:59:28.298Z,3.45
2024-04-13T15:01:55.052Z,3.67
2024-04-13T15:04:21.887Z,4.00
2024-04-13T15:06:48.809Z,3.30
2024-04-13T15:09:16.077Z,3.65
2024-04-13T15:11:42.920Z,3.80
2024-04-13T15:14:09.594Z,3.92
2024-04-13T15:16:36.248Z,3.50
2024-04-13T15:19:03.055Z,4.10
2024-04-13T15:21:29.850Z,3.72
2024-04-13T15:23:56.931Z,3.40
2024-04-13T15:26:26.415Z,3.40
2024-04-13T15:28:55.455Z,3.40
2024-04-13T15:31:22.283Z,3.35
2024-04-13T15:33:49.227Z,2.95
2024-04-13T15:36:16.675Z,2.90
2024-04-13T15:38:44.054Z,2.92
2024-04-13T15:41:11.165Z,2.78
2024-04-13T15:43:37.837Z,2.35
2024-04-13T15:46:04.655Z,2.60
2024-04-13T15:48:31.459Z,3.40
2024-04-13T15:51:02.357Z,2.70
2024-04-13T15:53:29.001Z,2.80
2024-04-13T15:55:55.697Z,3.20
2024-04-13T15:58:22.924Z,2.20
2024-04-13T16:00:49.781Z,2.60
2024-04-13T16:03:16.708Z,2.70
2024-04-13T16:05:43.530Z,2.50
2024-04-13T16:08:10.394Z,2.22
2024-04-13T16:10:37.089Z,2.50
2024-04-13T16:13:03.801Z,2.10
2024-04-13T16:15:30.558Z,2.20
2024-04-13T16:17:57.260Z,2.00
2024-04-13T16:20:23.876Z,2.30
2024-04-13T16:22:50.723Z,2.33
2024-04-13T16:25:17.856Z,2.38
2024-04-13T16:27:44.576Z,2.50
2024-04-13T16:30:11.366Z,2.33
2024-04-13T16:32:38.722Z,2.45
2024-04-13T16:35:06.248Z,2.15
2024-04-13T16:37:32.950Z,2.22
2024-04-13T16:39:59.901Z,2.53
2024-04-13T16:42:27.670Z,2.42
2024-04-13T16:47:21.347Z,2.20
2024-04-13T16:49:48.093Z,2.50
2024-04-13T16:52:14.818Z,2.72
2024-04-13T16:54:41.573Z,2.78
2024-04-13T16:57:08.303Z,2.80
2024-04-13T16:59:34.932Z,2.58
2024-04-13T17:02:01.758Z,2.47
2024-04-13T17:04:28.939Z,2.65
2024-04-13T17:06:55.731Z,2.60
2024-04-13T17:09:26.278Z,2.65
2024-04-13T17:11:53.450Z,3.08
2024-04-13T17:14:20.129Z,2.35
2024-04-13T17:16:46.908Z,3.38
2024-04-13T17:19:13.719Z,2.67
2024-04-13T17:21:40.374Z,2.50
2024-04-13T17:24:07.335Z,2.90
2024-04-13T17:26:33.976Z,3.13
2024-04-13T17:29:00.656Z,3.22
2024-04-13T17:31:27.356Z,4.20
2024-04-13T17:33:54.113Z,3.15
2024-04-13T17:36:21.797Z,3.45
2024-04-13T17:38:49.174Z,3.47
2024-04-13T17:41:16.271Z,3.50
2024-04-13T17:43:42.994Z,3.25
2024-04-13T17:46:09.638Z,3.70
2024-04-13T17:48:36.539Z,3.47
2024-04-13T17:51:03.490Z,3.75
2024-04-13T17:53:30.181Z,3.10
2024-04-13T17:55:56.809Z,3.30
2024-04-13T17:58:23.555Z,3.13
2024-04-13T18:00:50.246Z,3.17
2024-04-13T18:03:16.993Z,2.33
2024-04-13T18:05:43.641Z,2.40
2024-04-13T18:08:11.580Z,2.05
2024-04-13T18:10:41.006Z,2.05
2024-04-13T18:13:07.802Z,2.67
2024-04-13T18:15:34.636Z,1.92
2024-04-13T18:18:01.401Z,2.20
2024-04-13T18:20:28.167Z,2.10
2024-04-13T18:22:54.841Z,2.17
2024-04-13T18:25:21.516Z,1.58
2024-04-13T18:27:48.253Z,1.98
2024-04-13T18:30:15.261Z,2.15
2024-04-13T18:32:42.438Z,1.95
2024-04-13T18:35:09.196Z,1.52
2024-04-13T18:37:35.949Z,1.63
2024-04-13T18:40:02.676Z,1.73
2024-04-13T18:42:29.568Z,2.15
2024-04-13T18:44:56.282Z,1.75
2024-04-13T18:47:23.448Z,1.60
2024-04-13T18:49:54.368Z,1.48
2024-04-13T18:52:22.086Z,1.20
2024-04-13T18:54:49.777Z,1.25
2024-04-13T18:57:16.539Z,1.73
2024-04-13T18:59:43.929Z,1.45
2024-04-13T19:02:10.994Z,1.17
2024-04-13T19:04:37.819Z,1.50
2024-04-13T19:07:04.883Z,1.35
2024-04-13T19:09:31.697Z,1.25
2024-04-13T19:11:58.512Z,1.88
2024-04-13T19:14:25.227Z,1.85
2024-04-13T19:16:52.477Z,1.80
2024-04-13T19:19:19.928Z,2.00
2024-04-13T19:21:46.995Z,1.88
2024-04-13T19:24:14.293Z,1.73
2024-04-13T19:26:42.010Z,1.77
2024-04-13T19:29:09.198Z,1.63
2024-04-13T19:31:36.153Z,2.63
2024-04-13T19:34:04.765Z,2.00
2024-04-13T19:36:32.693Z,2.30
2024-04-13T19:38:59.539Z,1.73
2024-04-13T19:41:26.179Z,1.90
2024-04-13T19:43:53.559Z,1.77
2024-04-13T19:46:20.213Z,2.13
2024-04-13T19:48:46.958Z,1.90
2024-04-13T19:51:13.783Z,1.83
2024-04-13T19:53:44.775Z,2.10
2024-04-13T19:56:11.416Z,1.80
2024-04-13T19:58:38.379Z,1.80
2024-04-13T20:01:06.906Z,2.35
2024-04-13T20:03:33.895Z,2.20
2024-04-13T20:06:01.011Z,1.90
2024-04-13T20:08:27.783Z,2.83
2024-04-13T20:11:08.374Z,2.38
2024-04-13T20:13:35.090Z,1.42
2024-04-13T20:16:20.518Z,2.13
2024-04-13T20:18:47.454Z,1.52
2024-04-13T20:21:14.135Z,1.98
2024-04-13T20:23:41.008Z,1.85
2024-04-13T20:26:07.812Z,1.95
2024-04-13T20:28:34.713Z,1.80
2024-04-13T20:31:01.426Z,1.70
2024-04-13T20:33:28.151Z,2.22
2024-04-13T20:35:54.890Z,2.67
2024-04-13T20:38:21.930Z,1.90
2024-04-13T20:40:48.639Z,2.25
2024-04-13T20:43:15.380Z,2.30
2024-04-13T20:45:42.224Z,2.53
2024-04-13T20:48:09.814Z,2.65
2024-04-13T20:50:39.109Z,2.42
2024-04-13T20:53:08.053Z,2.63
2024-04-13T20:55:34.760Z,2.72
2024-04-13T20:58:01.455Z,2.05
2024-04-13T21:00:28.283Z,2.42
2024-04-13T21:02:54.940Z,2.70
2024-04-13T21:05:22.007Z,2.72
2024-04-13T21:07:48.697Z,1.88
2024-04-13T21:10:15.712Z,2.63
2024-04-13T21:12:42.561Z,2.50
2024-04-13T21:15:09.374Z,2.53
2024-04-13T21:17:36.010Z,3.20
2024-04-13T21:20:02.821Z,3.42
2024-04-13T21:22:29.617Z,3.17
2024-04-13T21:24:56.988Z,3.20
2024-04-13T21:27:27.008Z,2.92
2024-04-13T21:29:53.745Z,2.40
2024-04-13T21:32:20.757Z,3.25
2024-04-13T21:34:47.668Z,3.42
2024-04-13T21:37:14.314Z,3.70
2024-04-13T21:39:40.987Z,2.85
2024-04-13T21:42:07.681Z,2.78
2024-04-13T21:44:34.684Z,3.72
2024-04-13T21:47:01.505Z,3.20
2024-04-13T21:49:28.295Z,3.28
2024-04-13T21:51:55.071Z,3.65
2024-04-13T21:54:21.838Z,3.20
2024-04-13T21:56:48.537Z,3.30
2024-04-13T21:59:15.167Z,3.22
2024-04-13T22:01:42.478Z,3.35
2024-04-13T22:04:09.330Z,3.97
2024-04-13T22:06:36.213Z,3.95
2024-04-13T22:09:05.531Z,3.95
2024-04-13T22:11:32.247Z,4.65
2024-04-13T22:13:58.931Z,3.45
2024-04-13T22:16:27.699Z,3.95
2024-04-13T22:18:54.500Z,3.00
2024-04-13T22:21:21.312Z,4.22
2024-04-13T22:23:48.113Z,3.20
2024-04-13T22:26:14.804Z,4.05
2024-04-13T22:28:41.511Z,3.67
2024-04-13T22:31:08.312Z,3.90
2024-04-13T22:33:35.017Z,3.72
2024-04-13T22:36:01.785Z,4.20
2024-04-13T22:38:29.226Z,4.88
2024-04-13T22:40:55.882Z,3.95
2024-04-13T22:43:24.338Z,4.15
2024-04-13T22:45:51.126Z,3.90
2024-04-13T22:48:18.156Z,3.95
2024-04-13T22:50:45.264Z,4.20
2024-04-13T22:53:12.014Z,3.80
2024-04-13T22:55:38.688Z,4.10
2024-04-13T22:58:05.348Z,3.78
2024-04-13T23:00:32.002Z,3.67
2024-04-13T23:02:58.682Z,4.07
2024-04-13T23:05:25.369Z,3.75
2024-04-13T23:07:52.028Z,4.25
2024-04-13T23:10:18.649Z,3.83
2024-04-13T23:12:45.464Z,4.28
2024-04-13T23:15:12.121Z,5.20
2024-04-13T23:17:38.853Z,4.25
2024-04-13T23:20:06.939Z,4.07
2024-04-13T23:22:33.607Z,4.80
2024-04-13T23:25:00.402Z,4.18
2024-04-13T23:27:29.319Z,4.15
2024-04-13T23:29:56.192Z,4.45
2024-04-13T23:32:23.037Z,4.10
2024-04-13T23:34:49.699Z,3.67
2024-04-13T23:37:16.363Z,4.38
2024-04-13T23:39:43.249Z,4.07
2024-04-13T23:42:09.873Z,4.20
2024-04-13T23:44:36.524Z,3.92
2024-04-13T23:47:03.320Z,4.03
2024-04-13T23:49:30.036Z,3.72
2024-04-13T23:51:56.756Z,3.58
2024-04-13T23:54:23.424Z,3.80
2024-04-13T23:56:50.156Z,4.30
2024-04-13T23:59:16.793Z,2.92
